sensor_id;sensor_type;location;lat;lon;timestamp;P1;durP1;ratioP1;P2;durP2;ratioP2
71513;SDS011;59335;46.652;21.272;2023-04-10T00:00:55;10.52;;;6.85;;
71513;SDS011;59335;46.652;21.272;2023-04-10T00:03:59;10.50;;;7.20;;
71513;SDS011;59335;46.652;21.272;2023-04-10T00:07:02;10.18;;;7.22;;
71513;SDS011;59335;46.652;21.272;2023-04-10T00:10:05;11.10;;;7.00;;
71513;SDS011;59335;46.652;21.272;2023-04-10T00:13:08;10.77;;;6.63;;
71513;SDS011;59335;46.652;21.272;2023-04-10T00:16:10;11.30;;;7.32;;
71513;SDS011;59335;46.652;21.272;2023-04-10T00:19:13;10.93;;;7.25;;
71513;SDS011;59335;46.652;21.272;2023-04-10T00:22:17;11.63;;;7.40;;
71513;SDS011;59335;46.652;21.272;2023-04-10T00:25:19;11.77;;;6.70;;
71513;SDS011;59335;46.652;21.272;2023-04-10T00:28:24;10.23;;;6.90;;
71513;SDS011;59335;46.652;21.272;2023-04-10T00:31:26;10.50;;;7.07;;
71513;SDS011;59335;46.652;21.272;2023-04-10T00:34:29;11.88;;;7.28;;
71513;SDS011;59335;46.652;21.272;2023-04-10T00:37:32;10.80;;;7.47;;
71513;SDS011;59335;46.652;21.272;2023-04-10T00:40:35;10.40;;;6.53;;
71513;SDS011;59335;46.652;21.272;2023-04-10T00:43:37;11.07;;;6.70;;
71513;SDS011;59335;46.652;21.272;2023-04-10T00:46:40;11.88;;;7.32;;
71513;SDS011;59335;46.652;21.272;2023-04-10T00:49:44;10.32;;;7.13;;
71513;SDS011;59335;46.652;21.272;2023-04-10T00:52:47;11.43;;;7.18;;
71513;SDS011;59335;46.652;21.272;2023-04-10T00:55:50;9.80;;;6.90;;
71513;SDS011;59335;46.652;21.272;2023-04-10T00:58:54;11.05;;;7.10;;
71513;SDS011;59335;46.652;21.272;2023-04-10T01:01:57;10.43;;;6.80;;
71513;SDS011;59335;46.652;21.272;2023-04-10T01:05:00;10.30;;;6.82;;
71513;SDS011;59335;46.652;21.272;2023-04-10T01:11:50;10.80;;;7.00;;
71513;SDS011;59335;46.652;21.272;2023-04-10T01:15:11;10.02;;;6.30;;
71513;SDS011;59335;46.652;21.272;2023-04-10T01:18:29;10.32;;;6.80;;
71513;SDS011;59335;46.652;21.272;2023-04-10T01:21:35;10.27;;;6.75;;
71513;SDS011;59335;46.652;21.272;2023-04-10T01:24:44;9.88;;;6.20;;
71513;SDS011;59335;46.652;21.272;2023-04-10T01:31:20;11.85;;;7.30;;
71513;SDS011;59335;46.652;21.272;2023-04-10T01:34:39;9.93;;;6.70;;
71513;SDS011;59335;46.652;21.272;2023-04-10T01:37:47;10.70;;;6.45;;
71513;SDS011;59335;46.652;21.272;2023-04-10T01:40:53;10.35;;;7.25;;
71513;SDS011;59335;46.652;21.272;2023-04-10T01:44:03;10.17;;;6.50;;
71513;SDS011;59335;46.652;21.272;2023-04-10T01:47:06;10.40;;;6.30;;
71513;SDS011;59335;46.652;21.272;2023-04-10T01:50:09;10.30;;;6.55;;
71513;SDS011;59335;46.652;21.272;2023-04-10T01:53:13;10.65;;;7.10;;
71513;SDS011;59335;46.652;21.272;2023-04-10T01:56:17;11.50;;;6.68;;
71513;SDS011;59335;46.652;21.272;2023-04-10T01:59:20;10.57;;;7.10;;
71513;SDS011;59335;46.652;21.272;2023-04-10T02:02:23;10.75;;;6.65;;
71513;SDS011;59335;46.652;21.272;2023-04-10T02:05:27;11.10;;;7.07;;
71513;SDS011;59335;46.652;21.272;2023-04-10T02:08:56;11.00;;;6.93;;
71513;SDS011;59335;46.652;21.272;2023-04-10T02:12:04;10.43;;;6.82;;
71513;SDS011;59335;46.652;21.272;2023-04-10T02:15:10;9.47;;;6.00;;
71513;SDS011;59335;46.652;21.272;2023-04-10T02:18:14;10.38;;;6.55;;
71513;SDS011;59335;46.652;21.272;2023-04-10T02:21:18;10.63;;;6.82;;
71513;SDS011;59335;46.652;21.272;2023-04-10T02:24:20;10.00;;;6.30;;
71513;SDS011;59335;46.652;21.272;2023-04-10T02:27:27;10.43;;;6.30;;
71513;SDS011;59335;46.652;21.272;2023-04-10T02:30:33;10.40;;;6.90;;
71513;SDS011;59335;46.652;21.272;2023-04-10T02:33:37;10.68;;;7.15;;
71513;SDS011;59335;46.652;21.272;2023-04-10T02:36:39;10.02;;;6.75;;
71513;SDS011;59335;46.652;21.272;2023-04-10T02:39:44;10.35;;;6.68;;
71513;SDS011;59335;46.652;21.272;2023-04-10T02:42:47;9.70;;;6.35;;
71513;SDS011;59335;46.652;21.272;2023-04-10T02:45:50;11.07;;;7.13;;
71513;SDS011;59335;46.652;21.272;2023-04-10T02:48:59;11.05;;;6.78;;
71513;SDS011;59335;46.652;21.272;2023-04-10T02:52:03;10.60;;;7.03;;
71513;SDS011;59335;46.652;21.272;2023-04-10T02:55:05;10.05;;;6.85;;
71513;SDS011;59335;46.652;21.272;2023-04-10T02:58:11;9.38;;;6.50;;
71513;SDS011;59335;46.652;21.272;2023-04-10T03:01:16;10.57;;;6.63;;
71513;SDS011;59335;46.652;21.272;2023-04-10T03:04:21;10.90;;;7.03;;
71513;SDS011;59335;46.652;21.272;2023-04-10T03:07:24;10.43;;;7.03;;
71513;SDS011;59335;46.652;21.272;2023-04-10T03:10:27;10.50;;;6.88;;
71513;SDS011;59335;46.652;21.272;2023-04-10T03:13:30;11.23;;;7.00;;
71513;SDS011;59335;46.652;21.272;2023-04-10T03:16:32;11.23;;;7.53;;
71513;SDS011;59335;46.652;21.272;2023-04-10T03:19:38;10.77;;;7.00;;
71513;SDS011;59335;46.652;21.272;2023-04-10T03:22:40;10.23;;;6.53;;
71513;SDS011;59335;46.652;21.272;2023-04-10T03:25:48;10.30;;;6.65;;
71513;SDS011;59335;46.652;21.272;2023-04-10T03:28:52;10.93;;;6.78;;
71513;SDS011;59335;46.652;21.272;2023-04-10T03:31:55;10.27;;;6.33;;
71513;SDS011;59335;46.652;21.272;2023-04-10T03:34:59;10.57;;;6.80;;
71513;SDS011;59335;46.652;21.272;2023-04-10T03:38:02;10.23;;;7.00;;
71513;SDS011;59335;46.652;21.272;2023-04-10T03:41:05;11.50;;;6.60;;
71513;SDS011;59335;46.652;21.272;2023-04-10T03:44:09;9.98;;;6.68;;
71513;SDS011;59335;46.652;21.272;2023-04-10T03:47:12;10.53;;;6.83;;
71513;SDS011;59335;46.652;21.272;2023-04-10T03:50:20;10.75;;;6.60;;
71513;SDS011;59335;46.652;21.272;2023-04-10T03:53:31;10.27;;;6.88;;
71513;SDS011;59335;46.652;21.272;2023-04-10T03:56:41;10.40;;;6.55;;
71513;SDS011;59335;46.652;21.272;2023-04-10T03:59:45;10.23;;;6.82;;
71513;SDS011;59335;46.652;21.272;2023-04-10T04:02:49;10.23;;;6.77;;
71513;SDS011;59335;46.652;21.272;2023-04-10T04:06:19;10.27;;;6.60;;
71513;SDS011;59335;46.652;21.272;2023-04-10T04:09:48;9.90;;;6.53;;
71513;SDS011;59335;46.652;21.272;2023-04-10T04:13:10;10.18;;;6.32;;
71513;SDS011;59335;46.652;21.272;2023-04-10T04:16:27;11.23;;;6.72;;
71513;SDS011;59335;46.652;21.272;2023-04-10T04:19:48;11.03;;;6.83;;
71513;SDS011;59335;46.652;21.272;2023-04-10T04:22:58;10.30;;;6.32;;
71513;SDS011;59335;46.652;21.272;2023-04-10T04:26:29;11.05;;;7.00;;
71513;SDS011;59335;46.652;21.272;2023-04-10T04:29:51;11.52;;;7.18;;
71513;SDS011;59335;46.652;21.272;2023-04-10T04:32:59;10.88;;;7.15;;
71513;SDS011;59335;46.652;21.272;2023-04-10T04:36:17;10.27;;;6.60;;
71513;SDS011;59335;46.652;21.272;2023-04-10T04:39:39;10.18;;;6.68;;
71513;SDS011;59335;46.652;21.272;2023-04-10T04:42:54;13.18;;;7.22;;
71513;SDS011;59335;46.652;21.272;2023-04-10T04:46:17;9.73;;;6.75;;
71513;SDS011;59335;46.652;21.272;2023-04-10T04:49:46;10.38;;;6.80;;
71513;SDS011;59335;46.652;21.272;2023-04-10T04:53:12;10.10;;;6.40;;
71513;SDS011;59335;46.652;21.272;2023-04-10T04:56:33;8.90;;;6.07;;
71513;SDS011;59335;46.652;21.272;2023-04-10T04:59:55;10.23;;;6.53;;
71513;SDS011;59335;46.652;21.272;2023-04-10T05:03:16;10.57;;;6.72;;
71513;SDS011;59335;46.652;21.272;2023-04-10T05:06:42;11.82;;;7.10;;
71513;SDS011;59335;46.652;21.272;2023-04-10T05:09:56;9.53;;;6.17;;
71513;SDS011;59335;46.652;21.272;2023-04-10T05:13:25;9.80;;;6.28;;
71513;SDS011;59335;46.652;21.272;2023-04-10T05:16:52;10.45;;;7.30;;
71513;SDS011;59335;46.652;21.272;2023-04-10T05:20:14;10.73;;;6.68;;
71513;SDS011;59335;46.652;21.272;2023-04-10T05:23:56;9.60;;;6.32;;
71513;SDS011;59335;46.652;21.272;2023-04-10T05:27:16;10.33;;;7.10;;
71513;SDS011;59335;46.652;21.272;2023-04-10T05:30:38;10.23;;;6.90;;
71513;SDS011;59335;46.652;21.272;2023-04-10T05:33:46;10.20;;;6.65;;
71513;SDS011;59335;46.652;21.272;2023-04-10T05:36:59;9.63;;;6.40;;
71513;SDS011;59335;46.652;21.272;2023-04-10T05:40:22;9.98;;;6.60;;
71513;SDS011;59335;46.652;21.272;2023-04-10T05:43:51;10.10;;;6.00;;
71513;SDS011;59335;46.652;21.272;2023-04-10T05:47:23;9.15;;;6.72;;
71513;SDS011;59335;46.652;21.272;2023-04-10T05:50:49;10.00;;;6.47;;
71513;SDS011;59335;46.652;21.272;2023-04-10T05:54:08;9.15;;;6.43;;
71513;SDS011;59335;46.652;21.272;2023-04-10T05:57:30;9.18;;;6.38;;
71513;SDS011;59335;46.652;21.272;2023-04-10T06:00:54;9.90;;;5.97;;
71513;SDS011;59335;46.652;21.272;2023-04-10T06:04:24;9.73;;;6.40;;
71513;SDS011;59335;46.652;21.272;2023-04-10T06:07:29;10.77;;;6.60;;
71513;SDS011;59335;46.652;21.272;2023-04-10T06:10:34;9.95;;;6.55;;
71513;SDS011;59335;46.652;21.272;2023-04-10T06:13:37;9.38;;;6.45;;
71513;SDS011;59335;46.652;21.272;2023-04-10T06:16:40;9.60;;;6.23;;
71513;SDS011;59335;46.652;21.272;2023-04-10T06:19:44;9.48;;;6.30;;
71513;SDS011;59335;46.652;21.272;2023-04-10T06:22:47;9.45;;;6.95;;
71513;SDS011;59335;46.652;21.272;2023-04-10T06:25:50;11.20;;;6.32;;
71513;SDS011;59335;46.652;21.272;2023-04-10T06:28:53;10.25;;;6.88;;
71513;SDS011;59335;46.652;21.272;2023-04-10T06:31:56;9.90;;;6.70;;
71513;SDS011;59335;46.652;21.272;2023-04-10T06:34:59;10.05;;;6.22;;
71513;SDS011;59335;46.652;21.272;2023-04-10T06:38:02;9.40;;;6.25;;
71513;SDS011;59335;46.652;21.272;2023-04-10T06:41:08;9.98;;;6.60;;
71513;SDS011;59335;46.652;21.272;2023-04-10T06:44:11;9.75;;;6.78;;
71513;SDS011;59335;46.652;21.272;2023-04-10T06:47:14;10.27;;;6.67;;
71513;SDS011;59335;46.652;21.272;2023-04-10T06:50:18;9.13;;;5.90;;
71513;SDS011;59335;46.652;21.272;2023-04-10T06:53:20;9.98;;;6.63;;
71513;SDS011;59335;46.652;21.272;2023-04-10T06:56:23;9.32;;;6.28;;
71513;SDS011;59335;46.652;21.272;2023-04-10T06:59:25;10.65;;;6.53;;
71513;SDS011;59335;46.652;21.272;2023-04-10T07:02:28;9.03;;;5.83;;
71513;SDS011;59335;46.652;21.272;2023-04-10T07:05:31;9.27;;;6.05;;
71513;SDS011;59335;46.652;21.272;2023-04-10T07:08:34;9.18;;;5.90;;
71513;SDS011;59335;46.652;21.272;2023-04-10T07:11:36;9.30;;;6.15;;
71513;SDS011;59335;46.652;21.272;2023-04-10T07:14:39;11.75;;;6.70;;
71513;SDS011;59335;46.652;21.272;2023-04-10T07:17:42;9.53;;;6.20;;
71513;SDS011;59335;46.652;21.272;2023-04-10T07:20:45;9.88;;;6.55;;
71513;SDS011;59335;46.652;21.272;2023-04-10T07:23:50;9.50;;;6.30;;
71513;SDS011;59335;46.652;21.272;2023-04-10T07:26:52;9.50;;;6.32;;
71513;SDS011;59335;46.652;21.272;2023-04-10T07:29:55;8.88;;;5.88;;
71513;SDS011;59335;46.652;21.272;2023-04-10T07:32:58;9.87;;;6.17;;
71513;SDS011;59335;46.652;21.272;2023-04-10T07:36:01;9.30;;;6.20;;
71513;SDS011;59335;46.652;21.272;2023-04-10T07:39:04;9.57;;;6.05;;
71513;SDS011;59335;46.652;21.272;2023-04-10T07:42:07;9.88;;;6.50;;
71513;SDS011;59335;46.652;21.272;2023-04-10T07:45:11;9.25;;;6.20;;
71513;SDS011;59335;46.652;21.272;2023-04-10T07:48:14;10.30;;;6.23;;
71513;SDS011;59335;46.652;21.272;2023-04-10T07:51:16;8.85;;;6.13;;
71513;SDS011;59335;46.652;21.272;2023-04-10T07:54:19;9.55;;;6.57;;
71513;SDS011;59335;46.652;21.272;2023-04-10T07:57:22;9.23;;;6.13;;
71513;SDS011;59335;46.652;21.272;2023-04-10T08:00:25;10.73;;;6.38;;
71513;SDS011;59335;46.652;21.272;2023-04-10T08:03:28;9.57;;;6.10;;
71513;SDS011;59335;46.652;21.272;2023-04-10T08:06:31;9.55;;;6.35;;
71513;SDS011;59335;46.652;21.272;2023-04-10T08:09:33;10.05;;;6.30;;
71513;SDS011;59335;46.652;21.272;2023-04-10T08:12:36;10.30;;;6.57;;
71513;SDS011;59335;46.652;21.272;2023-04-10T08:15:39;9.45;;;6.20;;
71513;SDS011;59335;46.652;21.272;2023-04-10T08:18:41;9.67;;;6.30;;
71513;SDS011;59335;46.652;21.272;2023-04-10T08:21:44;9.00;;;6.10;;
71513;SDS011;59335;46.652;21.272;2023-04-10T08:24:46;10.00;;;6.60;;
71513;SDS011;59335;46.652;21.272;2023-04-10T08:27:49;9.10;;;6.18;;
71513;SDS011;59335;46.652;21.272;2023-04-10T08:30:52;9.45;;;6.18;;
71513;SDS011;59335;46.652;21.272;2023-04-10T08:33:55;9.53;;;5.90;;
71513;SDS011;59335;46.652;21.272;2023-04-10T08:36:59;9.45;;;6.38;;
71513;SDS011;59335;46.652;21.272;2023-04-10T08:40:01;10.15;;;6.35;;
71513;SDS011;59335;46.652;21.272;2023-04-10T08:43:05;9.93;;;6.20;;
71513;SDS011;59335;46.652;21.272;2023-04-10T08:46:07;9.20;;;5.97;;
71513;SDS011;59335;46.652;21.272;2023-04-10T08:49:19;10.37;;;6.17;;
71513;SDS011;59335;46.652;21.272;2023-04-10T08:52:36;10.30;;;6.38;;
71513;SDS011;59335;46.652;21.272;2023-04-10T08:55:41;9.55;;;5.68;;
71513;SDS011;59335;46.652;21.272;2023-04-10T08:58:45;9.15;;;5.97;;
71513;SDS011;59335;46.652;21.272;2023-04-10T09:01:49;10.13;;;6.57;;
71513;SDS011;59335;46.652;21.272;2023-04-10T09:04:52;10.00;;;5.90;;
71513;SDS011;59335;46.652;21.272;2023-04-10T09:08:00;9.63;;;6.30;;
71513;SDS011;59335;46.652;21.272;2023-04-10T09:11:03;10.05;;;6.30;;
71513;SDS011;59335;46.652;21.272;2023-04-10T09:14:18;9.15;;;6.13;;
71513;SDS011;59335;46.652;21.272;2023-04-10T09:17:22;10.38;;;6.07;;
71513;SDS011;59335;46.652;21.272;2023-04-10T09:20:27;9.30;;;6.00;;
71513;SDS011;59335;46.652;21.272;2023-04-10T09:23:31;9.55;;;5.90;;
71513;SDS011;59335;46.652;21.272;2023-04-10T09:26:33;10.13;;;6.30;;
71513;SDS011;59335;46.652;21.272;2023-04-10T09:29:41;9.70;;;6.03;;
71513;SDS011;59335;46.652;21.272;2023-04-10T09:32:50;9.43;;;6.15;;
71513;SDS011;59335;46.652;21.272;2023-04-10T09:35:53;9.33;;;6.33;;
71513;SDS011;59335;46.652;21.272;2023-04-10T09:38:59;9.15;;;6.00;;
71513;SDS011;59335;46.652;21.272;2023-04-10T09:42:02;9.48;;;6.13;;
71513;SDS011;59335;46.652;21.272;2023-04-10T09:45:05;9.25;;;6.00;;
71513;SDS011;59335;46.652;21.272;2023-04-10T09:48:08;9.07;;;6.05;;
71513;SDS011;59335;46.652;21.272;2023-04-10T09:51:26;9.27;;;5.90;;
71513;SDS011;59335;46.652;21.272;2023-04-10T09:54:34;9.13;;;5.88;;
71513;SDS011;59335;46.652;21.272;2023-04-10T09:57:40;8.57;;;5.88;;
71513;SDS011;59335;46.652;21.272;2023-04-10T10:00:47;9.05;;;6.10;;
71513;SDS011;59335;46.652;21.272;2023-04-10T10:03:50;9.23;;;6.25;;
71513;SDS011;59335;46.652;21.272;2023-04-10T10:06:55;9.07;;;5.97;;
71513;SDS011;59335;46.652;21.272;2023-04-10T10:09:58;9.23;;;5.80;;
71513;SDS011;59335;46.652;21.272;2023-04-10T10:13:02;8.98;;;5.90;;
71513;SDS011;59335;46.652;21.272;2023-04-10T10:19:12;8.77;;;5.93;;
71513;SDS011;59335;46.652;21.272;2023-04-10T10:22:16;9.17;;;5.70;;
71513;SDS011;59335;46.652;21.272;2023-04-10T10:25:20;9.50;;;6.05;;
71513;SDS011;59335;46.652;21.272;2023-04-10T10:28:23;9.25;;;6.28;;
71513;SDS011;59335;46.652;21.272;2023-04-10T10:31:29;10.35;;;6.55;;
71513;SDS011;59335;46.652;21.272;2023-04-10T10:34:35;10.32;;;6.70;;
71513;SDS011;59335;46.652;21.272;2023-04-10T10:37:38;8.77;;;6.03;;
71513;SDS011;59335;46.652;21.272;2023-04-10T10:40:45;8.75;;;6.07;;
71513;SDS011;59335;46.652;21.272;2023-04-10T10:47:26;10.07;;;6.13;;
71513;SDS011;59335;46.652;21.272;2023-04-10T10:50:49;9.25;;;6.22;;
71513;SDS011;59335;46.652;21.272;2023-04-10T10:53:54;8.50;;;5.90;;
71513;SDS011;59335;46.652;21.272;2023-04-10T10:56:57;8.88;;;5.80;;
71513;SDS011;59335;46.652;21.272;2023-04-10T11:00:01;8.65;;;5.53;;
71513;SDS011;59335;46.652;21.272;2023-04-10T11:06:10;10.05;;;6.00;;
71513;SDS011;59335;46.652;21.272;2023-04-10T11:13:14;10.07;;;5.82;;
71513;SDS011;59335;46.652;21.272;2023-04-10T11:16:21;9.35;;;5.80;;
71513;SDS011;59335;46.652;21.272;2023-04-10T11:19:25;9.63;;;6.15;;
71513;SDS011;59335;46.652;21.272;2023-04-10T11:22:28;9.65;;;5.78;;
71513;SDS011;59335;46.652;21.272;2023-04-10T11:25:47;8.80;;;5.87;;
71513;SDS011;59335;46.652;21.272;2023-04-10T11:28:54;9.85;;;5.97;;
71513;SDS011;59335;46.652;21.272;2023-04-10T11:31:58;8.95;;;6.00;;
71513;SDS011;59335;46.652;21.272;2023-04-10T11:35:02;9.82;;;6.22;;
71513;SDS011;59335;46.652;21.272;2023-04-10T11:38:10;9.00;;;6.05;;
71513;SDS011;59335;46.652;21.272;2023-04-10T11:41:16;10.40;;;6.40;;
71513;SDS011;59335;46.652;21.272;2023-04-10T11:47:36;9.38;;;5.90;;
71513;SDS011;59335;46.652;21.272;2023-04-10T11:50:39;9.60;;;5.90;;
71513;SDS011;59335;46.652;21.272;2023-04-10T11:53:42;8.90;;;5.53;;
71513;SDS011;59335;46.652;21.272;2023-04-10T11:56:53;9.60;;;6.10;;
71513;SDS011;59335;46.652;21.272;2023-04-10T11:59:59;8.80;;;5.93;;
71513;SDS011;59335;46.652;21.272;2023-04-10T12:03:03;8.25;;;5.40;;
71513;SDS011;59335;46.652;21.272;2023-04-10T12:06:10;8.60;;;5.57;;
71513;SDS011;59335;46.652;21.272;2023-04-10T12:09:14;9.13;;;6.18;;
71513;SDS011;59335;46.652;21.272;2023-04-10T12:12:19;9.00;;;5.33;;
71513;SDS011;59335;46.652;21.272;2023-04-10T12:15:35;8.95;;;5.80;;
71513;SDS011;59335;46.652;21.272;2023-04-10T12:18:39;8.10;;;5.47;;
71513;SDS011;59335;46.652;21.272;2023-04-10T12:21:44;8.63;;;5.32;;
71513;SDS011;59335;46.652;21.272;2023-04-10T12:24:50;9.18;;;5.45;;
71513;SDS011;59335;46.652;21.272;2023-04-10T12:27:54;9.30;;;5.73;;
71513;SDS011;59335;46.652;21.272;2023-04-10T12:30:57;9.43;;;5.78;;
71513;SDS011;59335;46.652;21.272;2023-04-10T12:34:01;8.77;;;6.10;;
71513;SDS011;59335;46.652;21.272;2023-04-10T12:37:05;8.60;;;5.80;;
71513;SDS011;59335;46.652;21.272;2023-04-10T12:40:08;8.52;;;5.60;;
71513;SDS011;59335;46.652;21.272;2023-04-10T12:43:27;8.37;;;5.17;;
71513;SDS011;59335;46.652;21.272;2023-04-10T12:46:34;9.00;;;5.55;;
71513;SDS011;59335;46.652;21.272;2023-04-10T12:49:37;9.15;;;5.90;;
71513;SDS011;59335;46.652;21.272;2023-04-10T12:52:41;8.60;;;5.47;;
71513;SDS011;59335;46.652;21.272;2023-04-10T12:55:58;8.30;;;5.53;;
71513;SDS011;59335;46.652;21.272;2023-04-10T12:59:09;10.30;;;5.70;;
71513;SDS011;59335;46.652;21.272;2023-04-10T13:02:12;8.90;;;5.18;;
71513;SDS011;59335;46.652;21.272;2023-04-10T13:05:15;8.32;;;5.60;;
71513;SDS011;59335;46.652;21.272;2023-04-10T13:08:18;8.32;;;5.32;;
71513;SDS011;59335;46.652;21.272;2023-04-10T13:11:21;7.95;;;5.35;;
71513;SDS011;59335;46.652;21.272;2023-04-10T13:14:24;9.30;;;5.47;;
71513;SDS011;59335;46.652;21.272;2023-04-10T13:17:27;8.95;;;5.00;;
71513;SDS011;59335;46.652;21.272;2023-04-10T13:20:30;8.88;;;5.57;;
71513;SDS011;59335;46.652;21.272;2023-04-10T13:23:33;8.27;;;5.68;;
71513;SDS011;59335;46.652;21.272;2023-04-10T13:26:35;8.00;;;5.15;;
71513;SDS011;59335;46.652;21.272;2023-04-10T13:29:39;8.77;;;5.37;;
71513;SDS011;59335;46.652;21.272;2023-04-10T13:32:43;8.90;;;5.78;;
71513;SDS011;59335;46.652;21.272;2023-04-10T13:35:45;8.85;;;5.60;;
71513;SDS011;59335;46.652;21.272;2023-04-10T13:38:48;9.20;;;5.68;;
71513;SDS011;59335;46.652;21.272;2023-04-10T13:41:51;9.48;;;5.32;;
71513;SDS011;59335;46.652;21.272;2023-04-10T13:44:53;8.87;;;5.00;;
71513;SDS011;59335;46.652;21.272;2023-04-10T13:47:56;8.05;;;5.10;;
71513;SDS011;59335;46.652;21.272;2023-04-10T13:50:59;8.63;;;5.50;;
71513;SDS011;59335;46.652;21.272;2023-04-10T13:54:02;9.52;;;5.97;;
71513;SDS011;59335;46.652;21.272;2023-04-10T13:57:06;8.73;;;5.13;;
71513;SDS011;59335;46.652;21.272;2023-04-10T14:00:08;8.77;;;5.30;;
71513;SDS011;59335;46.652;21.272;2023-04-10T14:03:14;8.68;;;5.20;;
71513;SDS011;59335;46.652;21.272;2023-04-10T14:06:17;8.15;;;5.03;;
71513;SDS011;59335;46.652;21.272;2023-04-10T14:09:19;8.30;;;5.15;;
71513;SDS011;59335;46.652;21.272;2023-04-10T14:12:22;8.30;;;5.28;;
71513;SDS011;59335;46.652;21.272;2023-04-10T14:15:25;8.33;;;5.33;;
71513;SDS011;59335;46.652;21.272;2023-04-10T14:18:27;8.38;;;5.05;;
71513;SDS011;59335;46.652;21.272;2023-04-10T14:21:30;9.30;;;5.55;;
71513;SDS011;59335;46.652;21.272;2023-04-10T14:24:33;7.93;;;4.95;;
71513;SDS011;59335;46.652;21.272;2023-04-10T14:27:35;8.20;;;5.50;;
71513;SDS011;59335;46.652;21.272;2023-04-10T14:30:38;8.27;;;5.10;;
71513;SDS011;59335;46.652;21.272;2023-04-10T14:33:41;8.38;;;5.15;;
71513;SDS011;59335;46.652;21.272;2023-04-10T14:36:43;8.88;;;5.68;;
71513;SDS011;59335;46.652;21.272;2023-04-10T14:39:46;9.18;;;5.70;;
71513;SDS011;59335;46.652;21.272;2023-04-10T14:42:48;8.07;;;5.40;;
71513;SDS011;59335;46.652;21.272;2023-04-10T14:45:51;7.87;;;4.90;;
71513;SDS011;59335;46.652;21.272;2023-04-10T14:48:54;7.97;;;5.38;;
71513;SDS011;59335;46.652;21.272;2023-04-10T14:51:57;7.50;;;5.03;;
71513;SDS011;59335;46.652;21.272;2023-04-10T14:54:59;8.13;;;5.10;;
71513;SDS011;59335;46.652;21.272;2023-04-10T14:58:02;8.18;;;5.18;;
71513;SDS011;59335;46.652;21.272;2023-04-10T15:01:11;8.07;;;5.43;;
71513;SDS011;59335;46.652;21.272;2023-04-10T15:04:14;8.27;;;5.05;;
71513;SDS011;59335;46.652;21.272;2023-04-10T15:07:17;8.63;;;5.43;;
71513;SDS011;59335;46.652;21.272;2023-04-10T15:10:20;8.73;;;5.50;;
71513;SDS011;59335;46.652;21.272;2023-04-10T15:13:23;8.40;;;5.30;;
71513;SDS011;59335;46.652;21.272;2023-04-10T15:16:25;8.37;;;5.00;;
71513;SDS011;59335;46.652;21.272;2023-04-10T15:19:28;8.93;;;5.30;;
71513;SDS011;59335;46.652;21.272;2023-04-10T15:22:31;7.68;;;5.05;;
71513;SDS011;59335;46.652;21.272;2023-04-10T15:25:35;9.95;;;5.68;;
71513;SDS011;59335;46.652;21.272;2023-04-10T15:28:38;8.20;;;5.05;;
71513;SDS011;59335;46.652;21.272;2023-04-10T15:31:42;8.00;;;5.30;;
71513;SDS011;59335;46.652;21.272;2023-04-10T15:34:44;8.05;;;5.00;;
71513;SDS011;59335;46.652;21.272;2023-04-10T15:37:47;8.70;;;5.28;;
71513;SDS011;59335;46.652;21.272;2023-04-10T15:40:50;8.45;;;5.38;;
71513;SDS011;59335;46.652;21.272;2023-04-10T15:43:53;7.78;;;4.93;;
71513;SDS011;59335;46.652;21.272;2023-04-10T15:46:56;8.10;;;5.10;;
71513;SDS011;59335;46.652;21.272;2023-04-10T15:49:58;8.77;;;5.22;;
71513;SDS011;59335;46.652;21.272;2023-04-10T15:53:01;8.30;;;5.15;;
71513;SDS011;59335;46.652;21.272;2023-04-10T15:56:04;8.32;;;5.07;;
71513;SDS011;59335;46.652;21.272;2023-04-10T15:59:07;8.18;;;5.05;;
71513;SDS011;59335;46.652;21.272;2023-04-10T16:02:10;8.37;;;5.03;;
71513;SDS011;59335;46.652;21.272;2023-04-10T16:05:13;8.25;;;5.53;;
71513;SDS011;59335;46.652;21.272;2023-04-10T16:08:15;8.05;;;5.18;;
71513;SDS011;59335;46.652;21.272;2023-04-10T16:11:19;8.88;;;5.10;;
71513;SDS011;59335;46.652;21.272;2023-04-10T16:14:22;8.68;;;5.20;;
71513;SDS011;59335;46.652;21.272;2023-04-10T16:17:24;8.60;;;4.97;;
71513;SDS011;59335;46.652;21.272;2023-04-10T16:20:27;8.30;;;5.32;;
71513;SDS011;59335;46.652;21.272;2023-04-10T16:23:30;8.57;;;5.25;;
71513;SDS011;59335;46.652;21.272;2023-04-10T16:26:32;8.23;;;5.22;;
71513;SDS011;59335;46.652;21.272;2023-04-10T16:29:35;8.30;;;5.43;;
71513;SDS011;59335;46.652;21.272;2023-04-10T16:32:38;8.17;;;5.03;;
71513;SDS011;59335;46.652;21.272;2023-04-10T16:35:41;8.95;;;5.00;;
71513;SDS011;59335;46.652;21.272;2023-04-10T16:38:43;8.25;;;5.03;;
71513;SDS011;59335;46.652;21.272;2023-04-10T16:41:46;8.30;;;4.93;;
71513;SDS011;59335;46.652;21.272;2023-04-10T16:44:49;7.50;;;4.80;;
71513;SDS011;59335;46.652;21.272;2023-04-10T16:47:53;8.27;;;4.87;;
71513;SDS011;59335;46.652;21.272;2023-04-10T16:50:55;8.82;;;5.15;;
71513;SDS011;59335;46.652;21.272;2023-04-10T16:54:05;8.20;;;4.78;;
71513;SDS011;59335;46.652;21.272;2023-04-10T16:57:09;7.75;;;5.13;;
71513;SDS011;59335;46.652;21.272;2023-04-10T17:00:11;8.77;;;5.40;;
71513;SDS011;59335;46.652;21.272;2023-04-10T17:03:15;7.17;;;4.73;;
71513;SDS011;59335;46.652;21.272;2023-04-10T17:06:18;7.40;;;5.05;;
71513;SDS011;59335;46.652;21.272;2023-04-10T17:09:20;8.05;;;5.28;;
71513;SDS011;59335;46.652;21.272;2023-04-10T17:12:23;8.05;;;4.90;;
71513;SDS011;59335;46.652;21.272;2023-04-10T17:15:25;7.88;;;4.95;;
71513;SDS011;59335;46.652;21.272;2023-04-10T17:18:28;8.57;;;5.67;;
71513;SDS011;59335;46.652;21.272;2023-04-10T17:21:31;8.85;;;5.55;;
71513;SDS011;59335;46.652;21.272;2023-04-10T17:24:33;8.68;;;5.35;;
71513;SDS011;59335;46.652;21.272;2023-04-10T17:27:36;8.35;;;5.05;;
71513;SDS011;59335;46.652;21.272;2023-04-10T17:30:43;7.75;;;5.18;;
71513;SDS011;59335;46.652;21.272;2023-04-10T17:33:46;8.07;;;5.17;;
71513;SDS011;59335;46.652;21.272;2023-04-10T17:36:48;8.20;;;5.22;;
71513;SDS011;59335;46.652;21.272;2023-04-10T17:39:51;10.90;;;6.07;;
71513;SDS011;59335;46.652;21.272;2023-04-10T17:42:55;8.68;;;5.15;;
71513;SDS011;59335;46.652;21.272;2023-04-10T17:45:59;8.98;;;5.40;;
71513;SDS011;59335;46.652;21.272;2023-04-10T17:49:03;7.70;;;5.17;;
71513;SDS011;59335;46.652;21.272;2023-04-10T17:52:05;8.23;;;4.93;;
71513;SDS011;59335;46.652;21.272;2023-04-10T17:55:08;8.68;;;5.80;;
71513;SDS011;59335;46.652;21.272;2023-04-10T17:58:11;9.38;;;5.30;;
71513;SDS011;59335;46.652;21.272;2023-04-10T18:01:23;8.70;;;5.65;;
71513;SDS011;59335;46.652;21.272;2023-04-10T18:04:30;8.90;;;5.63;;
71513;SDS011;59335;46.652;21.272;2023-04-10T18:07:33;8.20;;;5.75;;
71513;SDS011;59335;46.652;21.272;2023-04-10T18:10:36;8.40;;;5.68;;
71513;SDS011;59335;46.652;21.272;2023-04-10T18:13:39;8.43;;;5.60;;
71513;SDS011;59335;46.652;21.272;2023-04-10T18:16:41;9.63;;;5.88;;
71513;SDS011;59335;46.652;21.272;2023-04-10T18:19:45;9.13;;;5.70;;
71513;SDS011;59335;46.652;21.272;2023-04-10T18:22:48;8.95;;;5.75;;
71513;SDS011;59335;46.652;21.272;2023-04-10T18:25:51;11.25;;;6.28;;
71513;SDS011;59335;46.652;21.272;2023-04-10T18:28:55;9.45;;;6.00;;
71513;SDS011;59335;46.652;21.272;2023-04-10T18:31:58;9.32;;;6.00;;
71513;SDS011;59335;46.652;21.272;2023-04-10T18:35:01;9.13;;;5.80;;
71513;SDS011;59335;46.652;21.272;2023-04-10T18:38:07;8.65;;;5.95;;
71513;SDS011;59335;46.652;21.272;2023-04-10T18:41:10;9.95;;;6.05;;
71513;SDS011;59335;46.652;21.272;2023-04-10T18:44:13;9.55;;;6.43;;